Time;durP1;ratioP1;P1;durP2;ratioP2;P2;SDS_P1;SDS_P2;PMS_P1;PMS_P2;Temp;Humidity;BMP_temperature;BMP_pressure;BME280_temperature;BME280_humidity;BME280_pressure;Samples;Min_cycle;Max_cycle;Signal;HPM_P1;HPM_P2
2022/04/08 00:00:04;;;;;;;11.57;2.20;;;;;;;;;;5010289;28;94039;-77
2022/04/08 00:02:31;;;;;;;5.95;1.83;;;;;;;;;;5011031;28;94007;-77
2022/04/08 00:04:57;;;;;;;7.15;1.77;;;;;;;;;;5013527;28;92654;-77
2022/04/08 00:07:24;;;;;;;11.48;1.73;;;;;;;;;;5006935;28;96103;-77
2022/04/08 00:09:50;;;;;;;10.38;2.13;;;;;;;;;;4995119;28;92883;-77
2022/04/08 00:12:17;;;;;;;9.18;1.95;;;;;;;;;;5002514;28;93986;-77
2022/04/08 00:14:43;;;;;;;13.13;3.05;;;;;;;;;;4992989;28;94292;-77
2022/04/08 00:17:10;;;;;;;10.50;2.17;;;;;;;;;;4998275;28;93228;-77
2022/04/08 00:19:36;;;;;;;13.85;3.15;;;;;;;;;;4998723;28;93408;-77
2022/04/08 00:22:05;;;;;;;17.63;3.03;;;;;;;;;;5013058;28;94094;-77
2022/04/08 00:24:32;;;;;;;11.73;2.22;;;;;;;;;;5012663;28;92053;-77
2022/04/08 00:26:58;;;;;;;8.95;2.17;;;;;;;;;;5013959;28;92550;-77
2022/04/08 00:29:24;;;;;;;10.35;1.90;;;;;;;;;;5011744;28;94355;-77
2022/04/08 00:31:57;;;;;;;11.85;2.63;;;;;;;;;;5012418;28;95610;-77
2022/04/08 00:34:25;;;;;;;12.40;2.95;;;;;;;;;;5010901;28;93977;-77
2022/04/08 00:36:53;;;;;;;8.75;2.15;;;;;;;;;;5013619;28;92464;-77
2022/04/08 00:39:19;;;;;;;13.50;3.08;;;;;;;;;;5011986;28;93947;-77
2022/04/08 00:41:46;;;;;;;18.77;3.20;;;;;;;;;;5012533;28;95501;-76
2022/04/08 00:44:13;;;;;;;8.20;2.63;;;;;;;;;;5010993;28;92592;-76
2022/04/08 00:46:40;;;;;;;16.55;3.20;;;;;;;;;;5002548;28;93146;-76
2022/04/08 00:49:06;;;;;;;16.52;2.95;;;;;;;;;;4973723;28;93463;-77
2022/04/08 00:51:33;;;;;;;19.27;2.47;;;;;;;;;;5016080;28;92487;-76
2022/04/08 00:54:00;;;;;;;12.55;2.63;;;;;;;;;;5013003;28;94110;-76
2022/04/08 00:56:30;;;;;;;17.30;2.80;;;;;;;;;;5009251;28;94766;-77
2022/04/08 00:58:57;;;;;;;15.88;3.15;;;;;;;;;;5010852;28;96457;-76
2022/04/08 01:01:26;;;;;;;11.82;2.53;;;;;;;;;;5000793;28;94101;-76
2022/04/08 01:03:53;;;;;;;12.65;2.05;;;;;;;;;;4992772;28;92466;-77
2022/04/08 01:06:20;;;;;;;12.80;2.97;;;;;;;;;;4994638;28;93369;-77
2022/04/08 01:08:47;;;;;;;12.98;2.38;;;;;;;;;;5010519;28;94633;-76
2022/04/08 01:11:13;;;;;;;21.00;2.83;;;;;;;;;;5013613;28;92962;-77
2022/04/08 01:13:39;;;;;;;19.27;2.70;;;;;;;;;;5013113;28;93851;-77
2022/04/08 01:16:06;;;;;;;15.38;3.50;;;;;;;;;;5004111;28;92824;-77
2022/04/08 01:18:32;;;;;;;8.90;2.33;;;;;;;;;;5012260;28;94362;-77
2022/04/08 01:21:02;;;;;;;17.13;2.40;;;;;;;;;;5008721;28;96660;-77
2022/04/08 01:23:29;;;;;;;16.50;2.88;;;;;;;;;;5012025;28;92457;-77
2022/04/08 01:25:56;;;;;;;11.93;3.00;;;;;;;;;;4996424;28;93774;-77
2022/04/08 01:28:25;;;;;;;16.80;2.33;;;;;;;;;;4992687;28;93428;-77
2022/04/08 01:30:51;;;;;;;17.95;2.95;;;;;;;;;;5003717;28;92543;-77
2022/04/08 01:33:18;;;;;;;18.85;3.35;;;;;;;;;;5015659;28;94006;-77
2022/04/08 01:35:44;;;;;;;15.80;2.83;;;;;;;;;;4998798;28;92441;-77
2022/04/08 01:38:11;;;;;;;22.92;3.05;;;;;;;;;;4992820;28;93953;-77
2022/04/08 01:40:37;;;;;;;21.60;2.58;;;;;;;;;;5001905;28;94305;-77
2022/04/08 01:43:04;;;;;;;20.27;3.67;;;;;;;;;;5012479;28;92482;-77
2022/04/08 01:45:30;;;;;;;16.48;2.67;;;;;;;;;;5008354;28;95670;-77
2022/04/08 01:47:57;;;;;;;11.63;3.17;;;;;;;;;;5012646;28;94183;-77
2022/04/08 01:50:23;;;;;;;13.88;2.58;;;;;;;;;;5011104;28;92874;-77
2022/04/08 01:52:49;;;;;;;14.63;3.58;;;;;;;;;;5010662;28;93660;-77
2022/04/08 01:55:16;;;;;;;11.15;2.50;;;;;;;;;;5014238;28;94305;-77
2022/04/08 01:57:42;;;;;;;18.33;2.95;;;;;;;;;;5002688;28;94520;-77
2022/04/08 02:00:09;;;;;;;15.90;2.67;;;;;;;;;;4993834;28;94548;-77
2022/04/08 02:02:38;;;;;;;21.67;3.60;;;;;;;;;;5011650;28;93237;-77
2022/04/08 02:05:05;;;;;;;8.25;2.50;;;;;;;;;;5010839;28;94847;-77
2022/04/08 02:07:32;;;;;;;19.60;3.83;;;;;;;;;;5011105;28;94135;-77
2022/04/08 02:09:58;;;;;;;14.07;3.53;;;;;;;;;;5006160;28;95020;-77
2022/04/08 02:12:25;;;;;;;15.10;3.35;;;;;;;;;;4993544;28;96649;-77
2022/04/08 02:14:51;;;;;;;18.33;3.63;;;;;;;;;;4997074;28;94313;-77
2022/04/08 02:17:18;;;;;;;15.95;2.78;;;;;;;;;;5019204;28;92752;-77
2022/04/08 02:19:44;;;;;;;18.85;3.10;;;;;;;;;;5013256;28;94169;-77
2022/04/08 02:22:11;;;;;;;11.45;3.03;;;;;;;;;;5013189;28;93309;-77
2022/04/08 02:24:38;;;;;;;21.58;3.20;;;;;;;;;;4991660;28;94095;-77
2022/04/08 02:27:06;;;;;;;21.38;2.97;;;;;;;;;;5015548;28;92361;-77
2022/04/08 02:29:33;;;;;;;24.27;3.38;;;;;;;;;;5013930;28;92524;-77
2022/04/08 02:31:59;;;;;;;12.63;2.70;;;;;;;;;;5015481;28;94115;-77
2022/04/08 02:34:26;;;;;;;15.20;3.75;;;;;;;;;;5011529;28;96742;-77
2022/04/08 02:36:52;;;;;;;20.38;3.95;;;;;;;;;;5013955;28;92740;-77
2022/04/08 02:39:18;;;;;;;13.68;3.25;;;;;;;;;;5012017;28;93179;-77
2022/04/08 02:41:45;;;;;;;14.65;3.53;;;;;;;;;;4998402;28;93028;-77
2022/04/08 02:44:12;;;;;;;17.90;4.18;;;;;;;;;;4995294;28;93889;-77
2022/04/08 02:46:39;;;;;;;5.88;2.13;;;;;;;;;;5010833;28;94321;-77
2022/04/08 02:49:05;;;;;;;9.02;2.35;;;;;;;;;;5014559;28;92525;-77
2022/04/08 02:51:32;;;;;;;21.48;3.53;;;;;;;;;;5014050;28;94352;-77
2022/04/08 02:53:58;;;;;;;12.02;2.17;;;;;;;;;;5015093;28;94284;-77
2022/04/08 02:56:24;;;;;;;14.93;3.00;;;;;;;;;;5012880;28;92494;-77
2022/04/08 02:58:51;;;;;;;7.30;2.63;;;;;;;;;;5013636;28;94855;-77
2022/04/08 03:01:17;;;;;;;9.27;2.20;;;;;;;;;;5016604;28;94231;-77
2022/04/08 03:03:44;;;;;;;7.18;2.20;;;;;;;;;;5013984;28;93899;-77
2022/04/08 03:06:10;;;;;;;6.00;2.28;;;;;;;;;;5013160;28;94479;-77
2022/04/08 03:08:36;;;;;;;7.55;2.75;;;;;;;;;;5014736;28;92438;-77
2022/04/08 03:11:03;;;;;;;7.70;2.35;;;;;;;;;;5012899;28;93809;-77
2022/04/08 03:13:29;;;;;;;8.45;2.25;;;;;;;;;;5012574;28;94512;-77
2022/04/08 03:15:56;;;;;;;10.20;2.00;;;;;;;;;;5003384;28;91744;-77
2022/04/08 03:18:22;;;;;;;5.53;2.05;;;;;;;;;;4994753;28;93272;-77
2022/04/08 03:20:49;;;;;;;4.07;1.70;;;;;;;;;;5005792;28;93307;-77
2022/04/08 03:23:15;;;;;;;10.30;2.50;;;;;;;;;;5011703;28;94911;-77
2022/04/08 03:25:41;;;;;;;10.65;2.22;;;;;;;;;;5005150;28;94005;-77
2022/04/08 03:28:08;;;;;;;8.73;1.90;;;;;;;;;;5007033;28;93019;-77
2022/04/08 03:30:34;;;;;;;14.77;4.50;;;;;;;;;;5000970;28;94496;-77
2022/04/08 03:33:01;;;;;;;8.75;2.22;;;;;;;;;;5000900;28;94238;-77
2022/04/08 03:35:27;;;;;;;6.13;1.90;;;;;;;;;;5012945;28;92506;-77
2022/04/08 03:37:53;;;;;;;5.88;1.77;;;;;;;;;;5011700;28;94248;-78
2022/04/08 03:40:20;;;;;;;8.60;1.90;;;;;;;;;;5002375;28;93365;-77
2022/04/08 03:42:46;;;;;;;11.82;2.45;;;;;;;;;;5001799;28;92828;-78
2022/04/08 03:45:15;;;;;;;10.30;2.38;;;;;;;;;;4999978;28;93641;-77
2022/04/08 03:47:42;;;;;;;7.78;2.40;;;;;;;;;;4972788;28;95674;-77
2022/04/08 03:50:08;;;;;;;8.70;2.10;;;;;;;;;;4999008;28;96536;-77
2022/04/08 03:52:35;;;;;;;9.55;2.22;;;;;;;;;;5013295;28;94179;-77
2022/04/08 03:55:02;;;;;;;14.32;2.80;;;;;;;;;;5012610;28;92432;-77
2022/04/08 03:57:28;;;;;;;11.52;2.45;;;;;;;;;;5012495;28;93953;-77
2022/04/08 03:59:55;;;;;;;8.43;2.13;;;;;;;;;;5011669;28;94174;-77
2022/04/08 04:02:21;;;;;;;8.60;2.40;;;;;;;;;;5013949;28;92509;-78
2022/04/08 04:04:49;;;;;;;7.95;2.67;;;;;;;;;;5013223;28;94147;-78
2022/04/08 04:07:15;;;;;;;12.68;2.92;;;;;;;;;;5011267;28;92477;-77
2022/04/08 04:09:42;;;;;;;11.45;2.65;;;;;;;;;;4992765;28;95091;-77
2022/04/08 04:12:09;;;;;;;15.38;2.55;;;;;;;;;;4994161;28;96617;-77
2022/04/08 04:14:35;;;;;;;9.43;2.92;;;;;;;;;;5004462;28;93963;-77
2022/04/08 04:17:02;;;;;;;12.75;2.50;;;;;;;;;;5006446;28;94485;-77
2022/04/08 04:19:28;;;;;;;16.15;2.60;;;;;;;;;;5012870;28;94560;-78
2022/04/08 04:21:54;;;;;;;8.52;2.88;;;;;;;;;;5012169;28;93404;-77
2022/04/08 04:24:21;;;;;;;9.23;2.67;;;;;;;;;;5012406;28;94083;-77
2022/04/08 04:26:47;;;;;;;15.50;3.15;;;;;;;;;;5016111;28;94135;-77
2022/04/08 04:29:13;;;;;;;16.38;2.92;;;;;;;;;;5012739;28;93953;-77
2022/04/08 04:31:40;;;;;;;12.05;3.72;;;;;;;;;;5006302;28;94246;-78
2022/04/08 04:34:06;;;;;;;17.70;2.38;;;;;;;;;;4995734;28;92494;-78
2022/04/08 04:36:32;;;;;;;8.88;3.53;;;;;;;;;;5009528;28;94855;-77
2022/04/08 04:38:59;;;;;;;17.50;3.30;;;;;;;;;;5012187;28;94114;-77
2022/04/08 04:41:25;;;;;;;13.27;3.42;;;;;;;;;;5012526;28;92519;-77
2022/04/08 04:43:52;;;;;;;13.10;3.15;;;;;;;;;;5010667;28;93161;-77
2022/04/08 04:46:24;;;;;;;8.95;3.00;;;;;;;;;;5013104;28;94055;-77
2022/04/08 04:48:50;;;;;;;8.25;2.60;;;;;;;;;;5005326;28;93742;-77
2022/04/08 04:51:17;;;;;;;10.35;2.53;;;;;;;;;;5005300;28;94106;-77
2022/04/08 04:53:43;;;;;;;11.20;3.00;;;;;;;;;;5012026;28;91779;-77
2022/04/08 04:56:10;;;;;;;10.38;3.30;;;;;;;;;;5010932;28;92903;-77
2022/04/08 04:58:36;;;;;;;17.23;3.17;;;;;;;;;;5011575;28;94134;-77
2022/04/08 05:01:02;;;;;;;7.25;2.80;;;;;;;;;;5011653;28;95743;-77
2022/04/08 05:03:29;;;;;;;15.82;3.72;;;;;;;;;;5011997;28;96444;-77
2022/04/08 05:05:55;;;;;;;16.17;2.80;;;;;;;;;;5009194;28;94598;-77
2022/04/08 05:08:21;;;;;;;10.48;3.58;;;;;;;;;;5010177;28;92430;-77
2022/04/08 05:10:48;;;;;;;9.90;3.13;;;;;;;;;;5016096;28;93918;-77
2022/04/08 05:13:14;;;;;;;13.82;3.00;;;;;;;;;;5011194;28;92435;-77
2022/04/08 05:15:42;;;;;;;11.68;3.17;;;;;;;;;;5010663;28;93841;-77
2022/04/08 05:18:09;;;;;;;11.80;3.60;;;;;;;;;;5012190;28;93695;-77
2022/04/08 05:20:35;;;;;;;9.10;3.08;;;;;;;;;;5012801;28;92452;-77
2022/04/08 05:23:01;;;;;;;16.75;2.97;;;;;;;;;;5011675;28;94946;-77
2022/04/08 05:25:28;;;;;;;11.13;5.05;;;;;;;;;;5000095;28;96410;-77
2022/04/08 05:27:54;;;;;;;18.20;6.50;;;;;;;;;;5009493;28;94801;-77
2022/04/08 05:30:20;;;;;;;10.13;3.55;;;;;;;;;;5013535;28;93303;-77
2022/04/08 05:32:47;;;;;;;8.20;2.90;;;;;;;;;;5008760;28;93033;-76
2022/04/08 05:35:15;;;;;;;12.52;4.75;;;;;;;;;;4991047;28;93534;-77
2022/04/08 05:37:42;;;;;;;9.13;3.25;;;;;;;;;;4987981;28;93327;-78
2022/04/08 05:40:14;;;;;;;12.05;2.83;;;;;;;;;;5009605;28;92499;-78
2022/04/08 05:42:42;;;;;;;8.75;3.13;;;;;;;;;;4994558;28;93445;-78
2022/04/08 05:45:09;;;;;;;14.02;3.88;;;;;;;;;;4996142;28;95390;-77
2022/04/08 05:47:35;;;;;;;12.32;4.82;;;;;;;;;;4997462;28;93833;-78
2022/04/08 05:50:03;;;;;;;9.15;3.78;;;;;;;;;;4993322;28;95479;-76
2022/04/08 05:52:29;;;;;;;12.80;3.83;;;;;;;;;;5001363;28;94149;-78
2022/04/08 05:54:55;;;;;;;9.48;3.78;;;;;;;;;;4997262;28;94161;-77
2022/04/08 05:57:22;;;;;;;11.23;4.15;;;;;;;;;;4998556;28;94176;-77
2022/04/08 05:59:48;;;;;;;10.95;3.33;;;;;;;;;;5008556;28;94261;-77
2022/04/08 06:02:15;;;;;;;9.32;2.78;;;;;;;;;;5013783;28;95154;-77
2022/04/08 06:04:41;;;;;;;14.65;3.15;;;;;;;;;;5014589;28;94159;-77
2022/04/08 06:07:08;;;;;;;11.35;3.05;;;;;;;;;;5009155;28;92132;-77
2022/04/08 06:09:34;;;;;;;10.27;3.15;;;;;;;;;;4995859;28;92475;-77
2022/04/08 06:12:01;;;;;;;7.45;3.25;;;;;;;;;;4998074;28;94018;-77
2022/04/08 06:14:28;;;;;;;5.78;3.88;;;;;;;;;;5017256;28;94899;-77
2022/04/08 06:16:54;;;;;;;17.25;4.55;;;;;;;;;;5013060;28;94713;-77
2022/04/08 06:19:21;;;;;;;13.73;4.15;;;;;;;;;;5015012;28;92582;-78
2022/04/08 06:21:47;;;;;;;10.63;3.63;;;;;;;;;;5012977;28;93874;-77
2022/04/08 06:24:14;;;;;;;6.65;3.20;;;;;;;;;;5015359;28;94062;-77
2022/04/08 06:26:40;;;;;;;11.68;3.00;;;;;;;;;;5013444;28;94236;-78
2022/04/08 06:29:08;;;;;;;9.20;3.30;;;;;;;;;;5015704;28;94117;-78
2022/04/08 06:31:35;;;;;;;12.18;3.10;;;;;;;;;;5013178;28;93967;-77
2022/04/08 06:34:01;;;;;;;10.73;2.85;;;;;;;;;;5014965;28;92557;-78
2022/04/08 06:36:28;;;;;;;13.45;3.20;;;;;;;;;;5015870;28;94955;-78
2022/04/08 06:38:55;;;;;;;9.35;3.00;;;;;;;;;;5008864;28;94852;-77
2022/04/08 06:41:22;;;;;;;10.63;3.25;;;;;;;;;;4998182;28;95618;-77
2022/04/08 06:43:48;;;;;;;8.80;2.90;;;;;;;;;;4993571;28;94151;-77
2022/04/08 06:46:14;;;;;;;9.82;3.38;;;;;;;;;;4994252;28;93014;-77
2022/04/08 06:48:41;;;;;;;8.57;3.35;;;;;;;;;;4992266;28;93912;-78
2022/04/08 06:51:07;;;;;;;7.22;3.17;;;;;;;;;;5005438;28;93685;-76
2022/04/08 06:53:39;;;;;;;8.63;3.20;;;;;;;;;;5015512;28;92503;-76
2022/04/08 06:56:05;;;;;;;14.20;3.28;;;;;;;;;;5011868;28;93107;-75
2022/04/08 06:58:38;;;;;;;4.20;2.67;;;;;;;;;;5011932;28;93533;-76
2022/04/08 07:01:05;;;;;;;;;;;;;;;;;;4997728;28;93958;-75
2022/04/08 07:03:31;;;;;;;9.55;2.38;;;;;;;;;;4991500;28;126230;-78
2022/04/08 07:05:58;;;;;;;5.05;2.40;;;;;;;;;;5005686;28;92720;-77
2022/04/08 07:08:24;;;;;;;16.02;2.92;;;;;;;;;;5009925;28;93835;-76
2022/04/08 07:10:51;;;;;;;8.93;3.15;;;;;;;;;;5006540;28;94487;-76
2022/04/08 07:13:17;;;;;;;6.45;2.40;;;;;;;;;;4991588;28;92513;-76
2022/04/08 07:15:43;;;;;;;9.43;3.03;;;;;;;;;;5000266;28;93725;-76
2022/04/08 07:18:10;;;;;;;8.55;3.00;;;;;;;;;;4986674;28;94612;-76
2022/04/08 07:20:36;;;;;;;7.13;2.90;;;;;;;;;;4992351;28;92078;-76
2022/04/08 07:23:03;;;;;;;8.68;2.55;;;;;;;;;;4992542;28;93606;-76
2022/04/08 07:25:29;;;;;;;8.60;2.80;;;;;;;;;;4990946;28;93251;-77
2022/04/08 07:27:58;;;;;;;5.80;2.28;;;;;;;;;;4990218;28;94840;-77
2022/04/08 07:30:25;;;;;;;7.85;2.35;;;;;;;;;;4984621;28;94077;-77
2022/04/08 07:32:54;;;;;;;7.03;2.95;;;;;;;;;;4983898;28;92505;-77
2022/04/08 07:35:23;;;;;;;12.20;2.45;;;;;;;;;;5009549;28;94080;-77
2022/04/08 07:37:49;;;;;;;10.40;2.72;;;;;;;;;;5011842;28;94842;-77
2022/04/08 07:40:16;;;;;;;7.60;2.75;;;;;;;;;;5017782;28;92501;-76
2022/04/08 07:42:42;;;;;;;10.77;2.72;;;;;;;;;;5008419;28;93192;-77
2022/04/08 07:45:08;;;;;;;10.38;2.40;;;;;;;;;;5014499;28;92149;-77
2022/04/08 07:47:35;;;;;;;4.88;2.53;;;;;;;;;;5012266;28;93343;-77
2022/04/08 07:50:05;;;;;;;13.32;2.63;;;;;;;;;;5009152;28;94269;-76
2022/04/08 07:52:32;;;;;;;7.72;2.30;;;;;;;;;;5008947;28;95012;-76
2022/04/08 07:54:58;;;;;;;7.85;2.90;;;;;;;;;;5014268;28;96457;-77
2022/04/08 07:57:25;;;;;;;8.98;3.00;;;;;;;;;;5007360;28;94245;-76
2022/04/08 07:59:51;;;;;;;9.57;2.53;;;;;;;;;;5014313;28;92693;-76
2022/04/08 08:02:17;;;;;;;10.60;2.83;;;;;;;;;;5015110;28;93889;-76
2022/04/08 08:04:47;;;;;;;10.23;2.85;;;;;;;;;;4991519;28;92528;-77
2022/04/08 08:07:14;;;;;;;8.68;2.47;;;;;;;;;;4990538;28;94009;-76
2022/04/08 08:09:40;;;;;;;8.82;2.15;;;;;;;;;;5002019;28;92756;-76
2022/04/08 08:12:20;;;;;;;6.95;2.25;;;;;;;;;;5005282;28;92527;-76
2022/04/08 08:14:46;;;;;;;8.93;3.10;;;;;;;;;;5009238;28;94596;-76
2022/04/08 08:17:13;;;;;;;10.32;2.47;;;;;;;;;;5006293;28;95661;-76
2022/04/08 08:19:39;;;;;;;10.75;2.78;;;;;;;;;;4992146;28;93271;-76
2022/04/08 08:22:06;;;;;;;11.95;3.10;;;;;;;;;;4999464;28;93883;-76
2022/04/08 08:24:32;;;;;;;22.27;4.22;;;;;;;;;;4993466;28;93691;-76
2022/04/08 08:26:59;;;;;;;13.40;2.45;;;;;;;;;;4987464;28;94023;-76
2022/04/08 08:29:25;;;;;;;8.18;2.47;;;;;;;;;;5001919;28;94045;-76
2022/04/08 08:31:51;;;;;;;15.65;2.78;;;;;;;;;;5002956;28;92518;-76
2022/04/08 08:34:20;;;;;;;9.88;2.65;;;;;;;;;;5011739;28;93094;-76
2022/04/08 08:36:47;;;;;;;6.78;1.90;;;;;;;;;;5001061;28;94928;-76
2022/04/08 08:39:14;;;;;;;11.63;2.80;;;;;;;;;;4985540;28;94099;-76
2022/04/08 08:41:40;;;;;;;9.60;2.30;;;;;;;;;;4987703;28;96654;-76
2022/04/08 08:44:07;;;;;;;7.70;1.90;;;;;;;;;;4997750;28;94384;-76
2022/04/08 08:46:34;;;;;;;8.70;2.33;;;;;;;;;;4997470;28;92481;-76
2022/04/08 08:49:02;;;;;;;10.43;2.35;;;;;;;;;;4998548;28;94083;-76
2022/04/08 08:51:29;;;;;;;11.43;2.45;;;;;;;;;;4988042;28;93002;-77
2022/04/08 08:53:55;;;;;;;11.93;2.55;;;;;;;;;;4987877;28;94492;-76
2022/04/08 08:56:21;;;;;;;10.50;2.58;;;;;;;;;;5001112;28;94153;-76
2022/04/08 08:58:48;;;;;;;7.80;2.50;;;;;;;;;;4987805;28;94642;-76
2022/04/08 09:01:14;;;;;;;23.08;3.00;;;;;;;;;;4995032;28;93781;-76
2022/04/08 09:03:42;;;;;;;5.38;2.10;;;;;;;;;;4983695;28;94276;-76
2022/04/08 09:06:08;;;;;;;6.53;2.10;;;;;;;;;;4972128;28;95118;-77
2022/04/08 09:08:36;;;;;;;11.38;2.65;;;;;;;;;;4993917;28;96608;-75
2022/04/08 09:11:03;;;;;;;7.63;2.70;;;;;;;;;;5000656;28;94541;-76
2022/04/08 09:13:29;;;;;;;13.00;2.30;;;;;;;;;;5012508;28;94462;-76
2022/04/08 09:15:57;;;;;;;6.60;2.40;;;;;;;;;;5012423;28;94268;-76
2022/04/08 09:18:29;;;;;;;6.35;1.92;;;;;;;;;;5012781;28;92481;-76
2022/04/08 09:21:03;;;;;;;20.50;3.03;;;;;;;;;;5012297;28;93873;-76
2022/04/08 09:23:33;;;;;;;10.13;2.70;;;;;;;;;;5011785;28;91703;-76
2022/04/08 09:26:04;;;;;;;10.00;1.83;;;;;;;;;;4982180;28;92982;-76
2022/04/08 09:28:37;;;;;;;7.63;2.90;;;;;;;;;;4975568;28;94139;-76
2022/04/08 09:31:05;;;;;;;7.93;2.15;;;;;;;;;;4971333;28;94858;-77
2022/04/08 09:33:32;;;;;;;9.70;2.97;;;;;;;;;;4975791;28;96256;-77
2022/04/08 09:35:58;;;;;;;6.20;2.00;;;;;;;;;;4991610;28;94363;-77
2022/04/08 09:38:30;;;;;;;8.93;2.25;;;;;;;;;;4986113;28;92463;-77
2022/04/08 09:41:04;;;;;;;14.93;3.92;;;;;;;;;;4973118;28;93948;-77
2022/04/08 09:43:35;;;;;;;8.35;1.98;;;;;;;;;;4971771;28;94454;-76
2022/04/08 09:46:18;;;;;;;11.60;2.08;;;;;;;;;;4973095;28;92450;-76
2022/04/08 09:48:45;;;;;;;11.45;1.88;;;;;;;;;;4973155;28;93901;-76
2022/04/08 09:51:17;;;;;;;12.05;2.00;;;;;;;;;;4986247;28;94334;-76
2022/04/08 09:53:43;;;;;;;8.95;2.60;;;;;;;;;;4992147;28;94078;-77
2022/04/08 09:56:14;;;;;;;6.07;2.05;;;;;;;;;;4990482;28;97022;-76
2022/04/08 09:58:45;;;;;;;10.02;2.33;;;;;;;;;;4991973;28;93894;-76
2022/04/08 10:01:11;;;;;;;9.57;2.00;;;;;;;;;;4992592;28;92943;-76
2022/04/08 10:03:38;;;;;;;9.07;1.80;;;;;;;;;;4991805;28;93171;-77
2022/04/08 10:06:05;;;;;;;7.18;1.90;;;;;;;;;;4991209;28;92999;-76
2022/04/08 10:08:33;;;;;;;6.53;2.17;;;;;;;;;;4991914;28;93275;-76
2022/04/08 10:11:21;;;;;;;8.77;2.08;;;;;;;;;;4991180;28;93424;-76
2022/04/08 10:13:50;;;;;;;5.22;1.80;;;;;;;;;;4995881;28;91763;-76
2022/04/08 10:16:17;;;;;;;12.65;1.92;;;;;;;;;;4992169;28;94211;-76
2022/04/08 10:18:44;;;;;;;11.85;1.85;;;;;;;;;;4991408;28;92481;-76
2022/04/08 10:21:11;;;;;;;15.43;2.08;;;;;;;;;;4990789;28;94856;-76
2022/04/08 10:23:38;;;;;;;9.23;2.83;;;;;;;;;;4991871;28;94204;-77
2022/04/08 10:26:06;;;;;;;6.75;1.45;;;;;;;;;;4991492;28;92473;-76
2022/04/08 10:28:36;;;;;;;12.68;1.95;;;;;;;;;;4973914;28;92828;-77
2022/04/08 10:31:15;;;;;;;5.47;1.77;;;;;;;;;;4972913;28;94759;-77
2022/04/08 10:33:46;;;;;;;4.80;1.70;;;;;;;;;;4973138;28;92362;-76
2022/04/08 10:36:13;;;;;;;8.07;2.35;;;;;;;;;;4979037;28;93789;-76
2022/04/08 10:38:39;;;;;;;7.28;1.92;;;;;;;;;;4975849;28;92363;-76
2022/04/08 10:41:12;;;;;;;4.93;1.83;;;;;;;;;;4977891;28;93739;-77
2022/04/08 10:43:46;;;;;;;6.57;2.13;;;;;;;;;;4975971;28;93970;-75
2022/04/08 10:46:13;;;;;;;5.05;1.60;;;;;;;;;;4973103;28;94887;-76
2022/04/08 10:48:39;;;;;;;8.85;2.70;;;;;;;;;;4975387;28;95256;-77
2022/04/08 10:51:09;;;;;;;8.68;2.42;;;;;;;;;;4975501;28;94089;-77
2022/04/08 10:53:40;;;;;;;6.13;1.65;;;;;;;;;;4974624;28;92955;-77
2022/04/08 10:56:13;;;;;;;5.32;1.73;;;;;;;;;;4975443;28;93570;-75
2022/04/08 10:58:40;;;;;;;4.05;1.55;;;;;;;;;;4977682;28;94579;-75
2022/04/08 11:01:35;;;;;;;10.23;2.15;;;;;;;;;;4974680;28;93839;-75
2022/04/08 11:04:03;;;;;;;6.07;2.15;;;;;;;;;;4977696;28;93588;-75
2022/04/08 11:06:30;;;;;;;12.05;2.08;;;;;;;;;;4994199;28;92468;-75
2022/04/08 11:09:03;;;;;;;10.10;1.80;;;;;;;;;;4994482;28;93134;-75
2022/04/08 11:11:30;;;;;;;5.07;2.03;;;;;;;;;;4992937;28;96473;-75
2022/04/08 11:13:57;;;;;;;8.15;2.20;;;;;;;;;;4994781;28;92478;-75
2022/04/08 11:16:23;;;;;;;14.02;2.05;;;;;;;;;;4993877;28;92843;-75
2022/04/08 11:18:50;;;;;;;9.48;2.33;;;;;;;;;;4994500;28;94375;-75
2022/04/08 11:21:17;;;;;;;7.88;2.33;;;;;;;;;;4997184;28;92469;-75
2022/04/08 11:23:55;;;;;;;7.30;2.03;;;;;;;;;;4994374;28;93464;-75
2022/04/08 11:26:21;;;;;;;11.25;2.42;;;;;;;;;;4994263;28;92800;-75
2022/04/08 11:28:48;;;;;;;7.20;2.00;;;;;;;;;;4974706;28;94115;-75
2022/04/08 11:31:33;;;;;;;7.93;1.92;;;;;;;;;;4974421;28;94233;-75
2022/04/08 11:34:04;;;;;;;8.10;2.03;;;;;;;;;;4974546;28;92992;-75
2022/04/08 11:36:31;;;;;;;9.60;2.47;;;;;;;;;;4972433;28;95646;-75
2022/04/08 11:38:58;;;;;;;6.22;2.17;;;;;;;;;;4974247;28;92470;-75
2022/04/08 11:41:32;;;;;;;4.97;1.73;;;;;;;;;;4977643;28;92968;-75
2022/04/08 11:43:59;;;;;;;8.70;1.75;;;;;;;;;;4972888;28;94155;-75
2022/04/08 11:46:26;;;;;;;5.90;1.60;;;;;;;;;;4973680;28;93894;-75
2022/04/08 11:48:52;;;;;;;5.88;1.88;;;;;;;;;;4974525;28;93914;-75
2022/04/08 11:51:22;;;;;;;9.32;1.92;;;;;;;;;;4973546;28;93980;-75
2022/04/08 11:53:49;;;;;;;9.98;2.20;;;;;;;;;;4974357;28;91747;-75
2022/04/08 11:56:28;;;;;;;4.50;1.75;;;;;;;;;;4973550;28;92993;-76
2022/04/08 11:58:59;;;;;;;10.23;2.30;;;;;;;;;;4973702;28;94130;-76
2022/04/08 12:01:31;;;;;;;6.43;1.63;;;;;;;;;;4972601;28;95000;-76
2022/04/08 12:04:01;;;;;;;4.65;1.45;;;;;;;;;;4977241;28;95165;-76
2022/04/08 12:06:40;;;;;;;4.75;1.70;;;;;;;;;;4974803;28;93208;-76
2022/04/08 12:09:13;;;;;;;3.83;1.95;;;;;;;;;;4975242;28;92800;-76
2022/04/08 12:11:42;;;;;;;2.83;1.58;;;;;;;;;;4973034;28;93093;-75
2022/04/08 12:14:15;;;;;;;10.43;2.33;;;;;;;;;;4973969;28;92486;-76
2022/04/08 12:16:45;;;;;;;3.40;1.85;;;;;;;;;;4973841;28;92463;-75
2022/04/08 12:19:11;;;;;;;3.63;1.50;;;;;;;;;;4973661;28;91785;-76
2022/04/08 12:21:57;;;;;;;12.80;2.08;;;;;;;;;;4973568;28;92461;-76
2022/04/08 12:24:27;;;;;;;5.18;1.88;;;;;;;;;;4978203;28;93857;-75
2022/04/08 12:26:53;;;;;;;6.97;1.58;;;;;;;;;;4990775;28;96980;-78
2022/04/08 12:29:19;;;;;;;9.80;2.30;;;;;;;;;;4974037;28;96343;-76
2022/04/08 12:31:49;;;;;;;7.28;2.13;;;;;;;;;;4981811;28;94527;-75
2022/04/08 12:34:18;;;;;;;9.27;1.80;;;;;;;;;;4993810;28;92588;-75
2022/04/08 12:36:45;;;;;;;9.38;1.73;;;;;;;;;;4993601;28;94136;-75
2022/04/08 12:39:14;;;;;;;6.03;1.75;;;;;;;;;;4992991;28;94446;-75
2022/04/08 12:41:41;;;;;;;7.63;2.15;;;;;;;;;;4990419;28;93008;-75
2022/04/08 12:44:08;;;;;;;6.72;1.70;;;;;;;;;;4991260;28;93135;-75
2022/04/08 12:46:35;;;;;;;9.48;1.88;;;;;;;;;;4992512;28;94530;-75
2022/04/08 12:49:02;;;;;;;5.68;1.95;;;;;;;;;;4996794;28;92519;-75
2022/04/08 12:51:29;;;;;;;11.27;1.85;;;;;;;;;;4991498;28;96264;-75
2022/04/08 12:53:55;;;;;;;5.38;1.80;;;;;;;;;;4992918;28;92997;-75
2022/04/08 12:56:24;;;;;;;8.18;2.03;;;;;;;;;;4993287;28;93846;-74
2022/04/08 12:58:51;;;;;;;11.50;2.78;;;;;;;;;;4992994;28;93610;-77
2022/04/08 13:01:17;;;;;;;6.60;2.20;;;;;;;;;;4993094;28;92501;-77
2022/04/08 13:03:43;;;;;;;8.07;2.72;;;;;;;;;;4993517;28;93383;-78
2022/04/08 13:06:10;;;;;;;5.35;1.95;;;;;;;;;;4992612;28;93443;-78
2022/04/08 13:08:37;;;;;;;11.80;1.88;;;;;;;;;;4992984;28;92122;-77
2022/04/08 13:11:03;;;;;;;13.65;2.47;;;;;;;;;;4996358;28;92393;-77
2022/04/08 13:13:33;;;;;;;7.72;2.10;;;;;;;;;;4993096;28;92480;-76
2022/04/08 13:15:59;;;;;;;7.47;1.77;;;;;;;;;;4991265;28;94940;-77
2022/04/08 13:18:26;;;;;;;6.90;1.88;;;;;;;;;;4992923;28;94161;-77
2022/04/08 13:20:52;;;;;;;13.10;2.55;;;;;;;;;;4992636;28;92509;-77
2022/04/08 13:23:18;;;;;;;7.18;2.10;;;;;;;;;;4976687;28;94007;-78
2022/04/08 13:25:45;;;;;;;9.45;2.55;;;;;;;;;;4992148;28;94203;-77
2022/04/08 13:28:13;;;;;;;8.35;2.17;;;;;;;;;;4985837;28;92560;-77
2022/04/08 13:30:40;;;;;;;10.05;2.58;;;;;;;;;;4984254;28;93003;-78
2022/04/08 13:33:12;;;;;;;19.25;2.70;;;;;;;;;;4996205;28;91739;-78
2022/04/08 13:35:39;;;;;;;7.90;1.73;;;;;;;;;;4992152;28;93255;-78
2022/04/08 13:38:05;;;;;;;10.70;2.33;;;;;;;;;;4992839;28;94647;-78
2022/04/08 13:40:31;;;;;;;7.25;2.50;;;;;;;;;;4991079;28;94843;-77
2022/04/08 13:43:00;;;;;;;11.65;2.33;;;;;;;;;;4992451;28;96536;-77
2022/04/08 13:45:26;;;;;;;5.25;1.73;;;;;;;;;;4992260;28;94209;-77
2022/04/08 13:47:53;;;;;;;6.22;1.77;;;;;;;;;;4993027;28;92590;-77
2022/04/08 13:50:19;;;;;;;11.40;2.42;;;;;;;;;;4992190;28;94136;-77
2022/04/08 13:52:46;;;;;;;5.68;1.98;;;;;;;;;;4995418;28;93168;-77
2022/04/08 13:55:14;;;;;;;13.82;2.20;;;;;;;;;;4992892;28;94401;-77
2022/04/08 13:57:40;;;;;;;6.05;1.50;;;;;;;;;;4991901;28;92598;-77
2022/04/08 14:00:07;;;;;;;6.05;1.80;;;;;;;;;;4992728;28;92477;-77
2022/04/08 14:02:34;;;;;;;8.57;2.58;;;;;;;;;;4992434;28;93906;-77
2022/04/08 14:05:01;;;;;;;6.07;1.83;;;;;;;;;;4989326;28;96081;-77
2022/04/08 14:07:27;;;;;;;6.03;2.03;;;;;;;;;;4992540;28;92470;-77
2022/04/08 14:09:53;;;;;;;13.07;2.63;;;;;;;;;;4996113;28;92870;-77
2022/04/08 14:12:21;;;;;;;7.93;2.05;;;;;;;;;;4995579;28;94507;-77
2022/04/08 14:14:48;;;;;;;4.22;1.60;;;;;;;;;;4999047;28;92493;-77
2022/04/08 14:17:34;;;;;;;7.60;2.50;;;;;;;;;;4994927;28;94129;-78
2022/04/08 14:20:00;;;;;;;3.80;1.83;;;;;;;;;;4995973;28;92498;-77
2022/04/08 14:22:28;;;;;;;6.85;2.47;;;;;;;;;;4996160;28;93266;-78
2022/04/08 14:24:54;;;;;;;10.50;2.40;;;;;;;;;;4994822;28;94082;-78
2022/04/08 14:27:41;;;;;;;8.43;2.15;;;;;;;;;;4998325;28;92574;-75
2022/04/08 14:30:07;;;;;;;6.95;1.85;;;;;;;;;;4996503;28;95809;-76
2022/04/08 14:32:33;;;;;;;9.65;1.55;;;;;;;;;;4987189;28;94189;-75
2022/04/08 14:35:00;;;;;;;3.33;1.95;;;;;;;;;;4981757;28;94203;-76
2022/04/08 14:37:27;;;;;;;7.05;1.90;;;;;;;;;;5005880;28;93930;-76